NORTHEAST SUFFOLK  -  Winter Weather Advisory Winter Weather Advisory        NORTHERN NASSAU  -  Winter Weather Advisory Winter Weather Advisory        NORTHWEST SUFFOLK  -  Winter Weather Advisory Winter Weather Advisory        SOUTHEAST SUFFOLK  -  Winter Weather Advisory Winter Weather Advisory        SOUTHERN NASSAU  -  Winter Weather Advisory Winter Weather Advisory        SOUTHWEST SUFFOLK  -  Winter Weather Advisory Winter Weather Advisory      

Active alerts

Northern Nassau
  Details for Northern Nassau Winter Weather Advisory
Southern Nassau
  Details for Southern Nassau Winter Weather Advisory
Northwest Suffolk
  Details for Northwest Suffolk Winter Weather Advisory
Southwest Suffolk
  Details for Southwest Suffolk Winter Weather Advisory
Northeast Suffolk
  Details for Northeast Suffolk Winter Weather Advisory
Southeast Suffolk
  Details for Southeast Suffolk Winter Weather Advisory


WXM80 ListenWXM80 Stop

You find our weather info also at:

UK Metoffice

WeatherCloud

Weather Underground

Northeastern Weather Network

AWEKAS

Citizen Weather Observer Program (CWOP)

HAMweather, WeatherForYou, PWS Weather


Weather Underground History page Text

Daily Summary for October 27, 2017 Units:  English    Metric   Both
« Previous Day
Next Day »
Daily Weekly Monthly Yearly Custom
  High: Low: Average:
Temperature: 65.2 °F 47.2 °F 54.3 °F
Dew Point: 47.8 °F 39.6 °F 43.2 °F
Humidity: 87 % 45 % 67 %
Wind Speed: 7.6 mph 0.0 mph 1.8 mph
Wind Gust: 15.0 mph - -
Wind:- - WSW
Pressure: 30.10 in 29.87 in -
Precipitation: 0.00 in    
Historical Graphs
 
 
Tabular Data for October 27, 2017
Time Temperature Dew Point Pressure Wind Wind Speed Wind Gust Humidity Rainfall Rate (Hourly)
00:04 51.8 °F 41.6 °F 29.87 in West 4.6 mph 8.1 mph 68 % 0.00 in
00:09 51.7 °F 41.5 °F 29.87 in WNW 1.3 mph 4.6 mph 68 % 0.00 in
00:14 51.7 °F 41.5 °F 29.87 in West 2.2 mph 8.1 mph 68 % 0.00 in
00:19 51.5 °F 41.3 °F 29.88 in SW 3.3 mph 3.5 mph 68 % 0.00 in
00:24 51.5 °F 40.9 °F 29.88 in WNW 3.6 mph 6.0 mph 67 % 0.00 in
00:29 51.4 °F 41.2 °F 29.88 in WSW 3.6 mph 6.0 mph 68 % 0.00 in
00:34 51.3 °F 41.1 °F 29.88 in SW 2.7 mph 5.8 mph 68 % 0.00 in
00:39 51.3 °F 41.1 °F 29.89 in West 4.6 mph 4.6 mph 68 % 0.00 in
00:44 51.2 °F 41.0 °F 29.89 in SW 5.6 mph 9.2 mph 68 % 0.00 in
00:49 51.1 °F 40.9 °F 29.90 in SW 5.5 mph 8.1 mph 68 % 0.00 in
00:54 51.1 °F 40.9 °F 29.90 in WSW 3.4 mph 6.9 mph 68 % 0.00 in
00:59 51.1 °F 40.9 °F 29.90 in SW 1.1 mph 9.2 mph 68 % 0.00 in
01:04 51.1 °F 40.9 °F 29.90 in WSW 3.9 mph 12.7 mph 68 % 0.00 in
01:09 51.0 °F 40.8 °F 29.90 in SW 2.6 mph 9.2 mph 68 % 0.00 in
01:15 51.0 °F 41.2 °F 29.90 in WSW 2.4 mph 7.0 mph 69 % 0.00 in
01:20 51.0 °F 40.8 °F 29.90 in WSW 2.8 mph 11.5 mph 68 % 0.00 in
01:25 50.9 °F 41.1 °F 29.90 in West 2.7 mph 8.1 mph 69 % 0.00 in
01:30 50.9 °F 41.1 °F 29.90 in WSW 3.9 mph 5.8 mph 69 % 0.00 in
01:35 50.9 °F 41.5 °F 29.91 in WSW 2.5 mph 5.8 mph 70 % 0.00 in
01:40 50.9 °F 41.5 °F 29.91 in WNW 5.3 mph 9.2 mph 70 % 0.00 in
01:45 50.8 °F 41.4 °F 29.91 in West 4.4 mph 8.1 mph 70 % 0.00 in
01:50 50.8 °F 41.0 °F 29.91 in WSW 4.5 mph 6.9 mph 69 % 0.00 in
01:55 50.8 °F 41.0 °F 29.92 in West 3.6 mph 6.9 mph 69 % 0.00 in
02:00 50.8 °F 40.6 °F 29.92 in WSW 2.1 mph 9.2 mph 68 % 0.00 in
02:05 50.8 °F 40.6 °F 29.93 in WSW 2.5 mph 3.5 mph 68 % 0.00 in
02:10 50.8 °F 41.0 °F 29.93 in SSW 3.8 mph 6.0 mph 69 % 0.00 in
02:15 50.8 °F 41.0 °F 29.94 in West 2.2 mph 2.3 mph 69 % 0.00 in
02:20 50.8 °F 41.4 °F 29.94 in SSW 3.5 mph 3.5 mph 70 % 0.00 in
02:25 50.7 °F 40.9 °F 29.94 in SW 2.4 mph 3.5 mph 69 % 0.00 in
02:31 50.6 °F 40.8 °F 29.94 in SW 1.0 mph 5.0 mph 69 % 0.00 in
02:36 50.5 °F 41.1 °F 29.95 in Calm   9.0 mph 70 % 0.00 in
02:40 50.5 °F 41.1 °F 29.95 in WSW 0.2 mph 3.5 mph 70 % 0.00 in
02:46 50.4 °F 41.3 °F 29.95 in WSW 1.0 mph 3.0 mph 71 % 0.00 in
02:51 50.1 °F 41.1 °F 29.96 in SW 1.0 mph 4.0 mph 71 % 0.00 in
02:55 49.9 °F 40.9 °F 29.96 in SW 0.6 mph 2.3 mph 71 % 0.00 in
03:01 49.7 °F 40.7 °F 29.96 in WSW 0.5 mph 2.3 mph 71 % 0.00 in
03:06 49.4 °F 40.7 °F 29.96 in SW 0.2 mph 2.3 mph 72 % 0.00 in
03:11 49.2 °F 40.6 °F 29.96 in SSW 2.2 mph 5.8 mph 72 % 0.00 in
03:16 48.9 °F 40.6 °F 29.96 in SW 2.9 mph 7.0 mph 73 % 0.00 in
03:21 48.7 °F 40.4 °F 29.96 in SW 1.2 mph 3.5 mph 73 % 0.00 in
03:26 48.4 °F 40.5 °F 29.96 in WSW 2.0 mph 4.6 mph 74 % 0.00 in
03:31 48.2 °F 40.3 °F 29.96 in WSW 0.4 mph 2.0 mph 74 % 0.00 in
03:36 48.0 °F 40.5 °F 29.97 in WSW 0.4 mph 4.6 mph 75 % 0.00 in
03:41 47.8 °F 40.3 °F 29.97 in WSW 1.4 mph 3.5 mph 75 % 0.00 in
03:46 47.7 °F 40.5 °F 29.97 in SW 1.0 mph 4.0 mph 76 % 0.00 in
03:51 47.5 °F 40.3 °F 29.97 in SW 2.0 mph 4.6 mph 76 % 0.00 in
03:56 47.4 °F 40.6 °F 29.97 in SW 1.8 mph 2.3 mph 77 % 0.00 in
04:01 47.3 °F 40.8 °F 29.97 in Calm   3.5 mph 78 % 0.00 in
04:06 47.2 °F 40.4 °F 29.98 in WSW 6.0 mph 9.2 mph 77 % 0.00 in
04:11 47.2 °F 39.7 °F 29.97 in SW 3.7 mph 7.0 mph 75 % 0.00 in
04:16 47.5 °F 39.6 °F 29.98 in WSW 4.5 mph 11.5 mph 74 % 0.00 in
04:21 47.8 °F 40.3 °F 29.98 in SSW 5.8 mph 8.1 mph 75 % 0.00 in
04:27 48.2 °F 40.6 °F 29.98 in SW 4.8 mph 10.4 mph 75 % 0.00 in
04:32 48.5 °F 40.9 °F 29.98 in WSW 3.7 mph 11.5 mph 75 % 0.00 in
04:37 48.7 °F 40.8 °F 29.99 in West 3.2 mph 6.9 mph 74 % 0.00 in
04:42 48.8 °F 40.9 °F 29.99 in West 2.9 mph 9.2 mph 74 % 0.00 in
04:52 49.2 °F 40.6 °F 29.99 in SW 0.3 mph 2.3 mph 72 % 0.00 in
04:57 49.3 °F 41.0 °F 30.00 in SW 0.8 mph 3.5 mph 73 % 0.00 in
05:02 49.3 °F 41.0 °F 30.00 in SW 0.5 mph 2.3 mph 73 % 0.00 in
05:07 49.2 °F 40.9 °F 30.00 in Calm   1.2 mph 73 % 0.00 in
05:12 49.1 °F 41.2 °F 30.00 in SW 0.1 mph 1.2 mph 74 % 0.00 in
05:17 48.9 °F 41.0 °F 30.00 in WNW 0.9 mph 3.5 mph 74 % 0.00 in
05:22 48.7 °F 40.8 °F 30.00 in WSW 0.2 mph 1.2 mph 74 % 0.00 in
05:27 48.7 °F 40.8 °F 30.00 in West 4.5 mph 10.4 mph 74 % 0.00 in
05:32 48.7 °F 40.4 °F 30.00 in West 4.8 mph 7.0 mph 73 % 0.00 in
05:37 48.8 °F 40.5 °F 30.00 in West 2.5 mph 7.0 mph 73 % 0.00 in
05:42 49.0 °F 40.7 °F 30.00 in West 5.3 mph 6.0 mph 73 % 0.00 in
05:47 49.1 °F 40.5 °F 30.00 in WSW 3.3 mph 8.1 mph 72 % 0.00 in
05:53 49.3 °F 40.7 °F 30.00 in WSW 3.8 mph 9.2 mph 72 % 0.00 in
05:58 49.4 °F 40.4 °F 30.01 in West 4.7 mph 9.2 mph 71 % 0.00 in
06:03 49.7 °F 40.7 °F 30.01 in SW 3.2 mph 8.1 mph 71 % 0.00 in
06:08 49.8 °F 40.4 °F 30.02 in West 7.6 mph 15.0 mph 70 % 0.00 in
06:13 50.0 °F 40.2 °F 30.02 in West 5.0 mph 7.0 mph 69 % 0.00 in
06:18 50.1 °F 40.3 °F 30.02 in SW 6.1 mph 10.4 mph 69 % 0.00 in
06:23 50.2 °F 40.4 °F 30.02 in West 4.8 mph 9.2 mph 69 % 0.00 in
06:28 50.3 °F 40.5 °F 30.01 in West 5.9 mph 10.4 mph 69 % 0.00 in
06:33 50.3 °F 40.5 °F 30.02 in WNW 2.3 mph 5.0 mph 69 % 0.00 in
06:38 50.4 °F 40.6 °F 30.02 in West 2.6 mph 4.6 mph 69 % 0.00 in
06:43 50.4 °F 41.0 °F 30.02 in WSW 3.0 mph 6.9 mph 70 % 0.00 in
06:48 50.4 °F 41.0 °F 30.02 in West 4.0 mph 9.2 mph 70 % 0.00 in
07:03 50.4 °F 41.3 °F 30.02 in SW 2.0 mph 5.0 mph 71 % 0.00 in
07:08 50.4 °F 41.3 °F 30.02 in West 5.9 mph 10.4 mph 71 % 0.00 in
07:13 50.4 °F 41.7 °F 30.03 in West 6.2 mph 9.2 mph 72 % 0.00 in
07:19 50.4 °F 41.7 °F 30.03 in WSW 3.4 mph 8.0 mph 72 % 0.00 in
07:24 50.4 °F 41.7 °F 30.03 in WSW 2.7 mph 8.1 mph 72 % 0.00 in
07:29 50.4 °F 42.1 °F 30.04 in West 2.6 mph 6.9 mph 73 % 0.00 in
07:34 50.4 °F 42.1 °F 30.04 in WNW 2.9 mph 5.8 mph 73 % 0.00 in
07:39 50.3 °F 42.0 °F 30.04 in WSW 2.2 mph 5.0 mph 73 % 0.00 in
07:44 50.4 °F 42.4 °F 30.04 in SSW 4.4 mph 6.9 mph 74 % 0.00 in
07:49 50.4 °F 42.4 °F 30.04 in West 4.1 mph 9.0 mph 74 % 0.00 in
07:54 50.4 °F 42.4 °F 30.05 in WSW 3.1 mph 11.0 mph 74 % 0.00 in
07:59 50.5 °F 42.5 °F 30.05 in West 4.0 mph 6.9 mph 74 % 0.00 in
08:04 50.5 °F 42.5 °F 30.05 in West 2.9 mph 6.0 mph 74 % 0.00 in
08:09 50.6 °F 42.6 °F 30.06 in WNW 2.5 mph 9.0 mph 74 % 0.00 in
08:14 50.7 °F 42.7 °F 30.06 in West 0.8 mph 6.9 mph 74 % 0.00 in
08:19 50.8 °F 42.5 °F 30.06 in WSW 3.8 mph 10.4 mph 73 % 0.00 in
08:24 50.9 °F 42.6 °F 30.06 in WNW 2.8 mph 8.1 mph 73 % 0.00 in
08:29 51.0 °F 42.6 °F 30.06 in West 2.2 mph 10.4 mph 73 % 0.00 in
08:35 51.0 °F 42.3 °F 30.06 in West 1.5 mph 8.1 mph 72 % 0.00 in
08:40 51.2 °F 42.5 °F 30.07 in WSW 0.3 mph 4.0 mph 72 % 0.00 in
08:45 51.3 °F 42.6 °F 30.07 in WSW 1.1 mph 5.8 mph 72 % 0.00 in
08:50 51.3 °F 42.6 °F 30.07 in NNW 2.7 mph 8.1 mph 72 % 0.00 in
08:55 51.5 °F 42.4 °F 30.07 in WSW 1.4 mph 5.8 mph 71 % 0.00 in
09:00 51.6 °F 42.9 °F 30.07 in WSW 0.5 mph 2.0 mph 72 % 0.00 in
09:05 51.7 °F 43.0 °F 30.07 in Calm   1.2 mph 72 % 0.00 in
09:10 51.8 °F 43.4 °F 30.08 in West 3.4 mph 5.8 mph 73 % 0.00 in
09:15 51.9 °F 43.2 °F 30.08 in NW 2.1 mph 4.6 mph 72 % 0.00 in
09:20 52.0 °F 43.3 °F 30.08 in West 1.7 mph 3.5 mph 72 % 0.00 in
09:25 52.2 °F 43.4 °F 30.08 in SW 2.7 mph 5.8 mph 72 % 0.00 in
09:30 52.5 °F 43.4 °F 30.08 in West 2.3 mph 6.9 mph 71 % 0.00 in
09:35 53.0 °F 44.2 °F 30.08 in WSW 2.5 mph 6.9 mph 72 % 0.00 in
09:40 53.5 °F 44.3 °F 30.09 in West 3.1 mph 4.6 mph 71 % 0.00 in
09:45 53.9 °F 44.0 °F 30.08 in SW 4.8 mph 6.9 mph 69 % 0.00 in
09:50 54.4 °F 43.7 °F 30.08 in WSW 4.0 mph 11.5 mph 67 % 0.00 in
09:55 54.8 °F 43.7 °F 30.09 in West 5.1 mph 10.4 mph 66 % 0.00 in
10:01 55.0 °F 43.8 °F 30.09 in West 2.5 mph 5.0 mph 66 % 0.00 in
10:06 55.2 °F 43.6 °F 30.08 in NW 3.0 mph 3.5 mph 65 % 0.00 in
10:11 55.4 °F 44.2 °F 30.09 in SW 1.5 mph 3.5 mph 66 % 0.00 in
10:16 55.6 °F 44.0 °F 30.09 in NW 5.1 mph 7.0 mph 65 % 0.00 in
10:21 55.9 °F 44.3 °F 30.09 in WNW 3.8 mph 10.4 mph 65 % 0.00 in
10:26 56.3 °F 44.7 °F 30.09 in WNW 0.9 mph 5.8 mph 65 % 0.00 in
10:31 56.7 °F 45.5 °F 30.09 in WNW 4.8 mph 6.9 mph 66 % 0.00 in
10:36 57.0 °F 45.3 °F 30.09 in WSW 6.3 mph 11.5 mph 65 % 0.00 in
10:41 57.4 °F 46.1 °F 30.09 in WSW 4.6 mph 9.0 mph 66 % 0.00 in
10:44 57.6 °F 45.9 °F 30.09 in NW 5.3 mph 9.2 mph 65 % 0.00 in
10:49 58.0 °F 46.7 °F 30.08 in NW 1.5 mph 9.2 mph 66 % 0.00 in
10:54 58.4 °F 45.8 °F 30.09 in West 1.5 mph 4.6 mph 63 % 0.00 in
11:04 59.3 °F 46.7 °F 30.08 in WNW 1.0 mph 5.8 mph 63 % 0.00 in
11:09 59.8 °F 46.3 °F 30.08 in WSW 4.2 mph 8.1 mph 61 % 0.00 in
11:14 60.1 °F 45.7 °F 30.08 in West 3.8 mph 8.1 mph 59 % 0.00 in
11:19 60.4 °F 45.5 °F 30.09 in West 4.1 mph 5.8 mph 58 % 0.00 in
11:24 60.9 °F 46.5 °F 30.09 in WSW 2.4 mph 5.0 mph 59 % 0.00 in
11:29 61.4 °F 47.8 °F 30.09 in NW 1.1 mph 6.0 mph 61 % 0.00 in
11:34 61.8 °F 46.9 °F 30.08 in NW 1.7 mph 7.0 mph 58 % 0.00 in
11:39 62.2 °F 46.3 °F 30.08 in WNW 1.2 mph 3.5 mph 56 % 0.00 in
11:45 62.6 °F 46.7 °F 30.08 in SSW 2.6 mph 6.0 mph 56 % 0.00 in
11:50 63.0 °F 47.5 °F 30.08 in WSW 0.9 mph 5.8 mph 57 % 0.00 in
11:55 63.2 °F 45.8 °F 30.08 in SSW 4.6 mph 5.8 mph 53 % 0.00 in
11:57 63.4 °F 46.9 °F 30.08 in WSW 2.0 mph 5.8 mph 55 % 0.00 in
12:02 63.6 °F 46.6 °F 30.08 in SW 0.6 mph 3.5 mph 54 % 0.00 in
12:07 63.7 °F 46.2 °F 30.08 in SW 4.0 mph 5.8 mph 53 % 0.00 in
12:12 63.8 °F 45.3 °F 30.07 in WNW 2.2 mph 3.5 mph 51 % 0.00 in
12:17 63.8 °F 46.3 °F 30.07 in West 1.3 mph 5.0 mph 53 % 0.00 in
12:23 63.7 °F 45.2 °F 30.07 in WNW 2.1 mph 2.1 mph 51 % 0.00 in
12:28 63.5 °F 46.1 °F 30.07 in WNW 0.3 mph 2.3 mph 53 % 0.00 in
12:33 63.2 °F 44.8 °F 30.07 in NW 1.6 mph 3.5 mph 51 % 0.00 in
12:38 62.9 °F 44.0 °F 30.07 in West 1.9 mph 6.9 mph 50 % 0.00 in
12:43 62.7 °F 44.8 °F 30.07 in West 2.1 mph 3.5 mph 52 % 0.00 in
12:48 62.6 °F 44.7 °F 30.07 in West 1.9 mph 3.5 mph 52 % 0.00 in
12:53 62.7 °F 43.3 °F 30.07 in WNW 4.3 mph 6.9 mph 49 % 0.00 in
12:58 62.8 °F 43.9 °F 30.07 in West 2.6 mph 4.6 mph 50 % 0.00 in
13:03 62.9 °F 43.4 °F 30.07 in West 4.0 mph 6.9 mph 49 % 0.00 in
13:08 62.9 °F 45.0 °F 30.06 in Calm   1.0 mph 52 % 0.00 in
13:13 62.8 °F 44.4 °F 30.06 in West 2.1 mph 3.5 mph 51 % 0.00 in
13:18 62.6 °F 43.7 °F 30.07 in NW 1.9 mph 5.8 mph 50 % 0.00 in
13:23 62.3 °F 43.9 °F 30.06 in West 3.6 mph 6.0 mph 51 % 0.00 in
13:28 62.2 °F 43.8 °F 30.06 in NNE 1.5 mph 5.0 mph 51 % 0.00 in
13:33 62.2 °F 45.3 °F 30.06 in SW 0.9 mph 4.6 mph 54 % 0.00 in
13:38 62.3 °F 43.9 °F 30.06 in West 2.7 mph 5.8 mph 51 % 0.00 in
13:44 62.5 °F 44.1 °F 30.06 in NW 3.1 mph 5.8 mph 51 % 0.00 in
13:49 62.9 °F 42.4 °F 30.06 in WNW 4.7 mph 6.9 mph 47 % 0.00 in
13:54 63.2 °F 43.2 °F 30.06 in NW 2.1 mph 9.2 mph 48 % 0.00 in
13:59 63.6 °F 43.0 °F 30.06 in NNW 1.8 mph 6.9 mph 47 % 0.00 in
14:04 63.9 °F 42.1 °F 30.06 in WNW 2.8 mph 5.8 mph 45 % 0.00 in
14:09 64.2 °F 43.0 °F 30.06 in West 4.1 mph 5.8 mph 46 % 0.00 in
14:14 64.4 °F 44.3 °F 30.05 in West 1.9 mph 4.6 mph 48 % 0.00 in
14:19 64.7 °F 43.4 °F 30.05 in WNW 4.4 mph 5.8 mph 46 % 0.00 in
14:24 64.8 °F 42.9 °F 30.05 in WNW 2.7 mph 6.0 mph 45 % 0.00 in
14:29 64.9 °F 43.0 °F 30.05 in North 2.0 mph 3.5 mph 45 % 0.00 in
14:34 65.0 °F 44.3 °F 30.05 in West 3.0 mph 4.6 mph 47 % 0.00 in
14:44 65.1 °F 44.4 °F 30.05 in West 0.6 mph 1.2 mph 47 % 0.00 in
14:49 65.1 °F 44.4 °F 30.05 in SW 5.2 mph 9.0 mph 47 % 0.00 in
14:54 65.1 °F 43.2 °F 30.05 in SW 4.1 mph 8.1 mph 45 % 0.00 in
14:59 65.2 °F 43.9 °F 30.05 in SW 1.7 mph 5.8 mph 46 % 0.00 in
15:05 65.1 °F 44.4 °F 30.05 in SW 3.3 mph 8.1 mph 47 % 0.00 in
15:10 65.1 °F 44.4 °F 30.05 in WSW 4.0 mph 6.0 mph 47 % 0.00 in
15:15 64.9 °F 43.0 °F 30.05 in WSW 0.7 mph 5.8 mph 45 % 0.00 in
15:20 64.7 °F 43.4 °F 30.05 in SSW 1.5 mph 3.5 mph 46 % 0.00 in
15:25 64.5 °F 43.3 °F 30.05 in WSW 2.2 mph 3.5 mph 46 % 0.00 in
15:30 64.3 °F 43.1 °F 30.05 in SSW 0.2 mph 1.2 mph 46 % 0.00 in
15:35 64.0 °F 42.8 °F 30.05 in SW 5.3 mph 6.9 mph 46 % 0.00 in
15:40 63.7 °F 42.5 °F 30.05 in ESE 0.3 mph 2.3 mph 46 % 0.00 in
15:45 63.4 °F 42.8 °F 30.05 in SSW 3.5 mph 4.6 mph 47 % 0.00 in
15:50 63.1 °F 42.5 °F 30.05 in SSW 1.9 mph 4.6 mph 47 % 0.00 in
15:55 62.9 °F 42.9 °F 30.05 in South 0.3 mph 2.0 mph 48 % 0.00 in
16:00 62.7 °F 42.2 °F 30.05 in WNW 3.0 mph 4.0 mph 47 % 0.00 in
16:05 62.5 °F 43.1 °F 30.05 in WSW 2.5 mph 4.6 mph 49 % 0.00 in
16:10 62.3 °F 43.4 °F 30.05 in Calm     50 % 0.00 in
16:15 62.1 °F 43.7 °F 30.05 in SW 3.0 mph 5.8 mph 51 % 0.00 in
16:20 61.9 °F 43.0 °F 30.05 in SW 0.4 mph 1.2 mph 50 % 0.00 in
16:25 61.8 °F 43.5 °F 30.05 in SW 1.7 mph 3.5 mph 51 % 0.00 in
16:31 61.6 °F 43.8 °F 30.05 in Calm   5.0 mph 52 % 0.00 in
16:36 61.3 °F 43.5 °F 30.06 in Calm   5.0 mph 52 % 0.00 in
16:38 61.3 °F 44.0 °F 30.06 in SSW 0.5 mph 3.5 mph 53 % 0.00 in
16:43 61.1 °F 43.8 °F 30.06 in Calm   2.3 mph 53 % 0.00 in
16:48 60.9 °F 43.6 °F 30.06 in SSW 0.8 mph 2.0 mph 53 % 0.00 in
16:53 60.7 °F 43.9 °F 30.06 in Calm     54 % 0.00 in
16:58 60.4 °F 43.7 °F 30.06 in SSW 0.2 mph 2.0 mph 54 % 0.00 in
17:03 60.3 °F 44.1 °F 30.06 in Calm   1.2 mph 55 % 0.00 in
17:08 60.1 °F 43.9 °F 30.06 in Calm   1.2 mph 55 % 0.00 in
17:13 59.9 °F 44.2 °F 30.06 in SSW 1.0 mph 2.3 mph 56 % 0.00 in
17:19 59.6 °F 43.9 °F 30.06 in Calm   3.5 mph 56 % 0.00 in
17:24 59.4 °F 43.7 °F 30.06 in Calm   1.2 mph 56 % 0.00 in
17:29 59.1 °F 43.9 °F 30.07 in SSW 0.1 mph 2.3 mph 57 % 0.00 in
17:34 58.8 °F 43.6 °F 30.07 in Calm   1.2 mph 57 % 0.00 in
17:39 58.6 °F 43.9 °F 30.06 in SSW 0.1 mph 1.2 mph 58 % 0.00 in
17:44 58.3 °F 43.6 °F 30.07 in Calm     58 % 0.00 in
17:49 58.0 °F 43.3 °F 30.07 in Calm     58 % 0.00 in
17:54 57.7 °F 43.5 °F 30.07 in Calm     59 % 0.00 in
17:59 57.5 °F 43.7 °F 30.07 in Calm     60 % 0.00 in
18:04 57.1 °F 43.8 °F 30.07 in Calm     61 % 0.00 in
18:09 56.8 °F 43.9 °F 30.07 in Calm     62 % 0.00 in
18:14 56.5 °F 44.0 °F 30.07 in Calm   1.0 mph 63 % 0.00 in
18:19 56.2 °F 43.8 °F 30.07 in Calm     63 % 0.00 in
18:24 55.8 °F 44.6 °F 30.08 in Calm     66 % 0.00 in
18:29 55.3 °F 44.5 °F 30.07 in Calm     67 % 0.00 in
18:34 55.0 °F 44.2 °F 30.08 in Calm     67 % 0.00 in
18:40 54.8 °F 44.0 °F 30.08 in Calm     67 % 0.00 in
18:45 54.5 °F 44.2 °F 30.08 in Calm   1.2 mph 68 % 0.00 in
18:50 54.2 °F 43.9 °F 30.08 in Calm     68 % 0.00 in
18:55 53.9 °F 43.6 °F 30.09 in Calm     68 % 0.00 in
19:00 53.7 °F 43.4 °F 30.09 in Calm     68 % 0.00 in
19:05 53.5 °F 44.0 °F 30.09 in Calm   1.2 mph 70 % 0.00 in
19:10 53.2 °F 43.7 °F 30.09 in Calm     70 % 0.00 in
19:15 53.0 °F 43.5 °F 30.09 in Calm     70 % 0.00 in
19:20 52.8 °F 43.7 °F 30.09 in Calm     71 % 0.00 in
19:25 52.6 °F 44.5 °F 30.09 in Calm     74 % 0.00 in
19:30 52.4 °F 44.4 °F 30.09 in Calm     74 % 0.00 in
19:35 52.2 °F 44.2 °F 30.09 in Calm     74 % 0.00 in
19:40 52.0 °F 44.0 °F 30.09 in Calm     74 % 0.00 in
19:45 51.8 °F 43.8 °F 30.09 in Calm     74 % 0.00 in
19:47 51.8 °F 43.8 °F 30.09 in Calm     74 % 0.00 in
19:52 51.5 °F 44.2 °F 30.09 in Calm     76 % 0.00 in
19:57 51.4 °F 44.1 °F 30.09 in Calm     76 % 0.00 in
20:02 51.2 °F 43.9 °F 30.09 in Calm     76 % 0.00 in
20:07 51.0 °F 44.0 °F 30.09 in Calm     77 % 0.00 in
20:12 50.8 °F 43.8 °F 30.09 in Calm     77 % 0.00 in
20:17 50.6 °F 44.3 °F 30.08 in Calm     79 % 0.00 in
20:22 50.5 °F 44.2 °F 30.09 in Calm     79 % 0.00 in
20:27 50.3 °F 44.4 °F 30.09 in Calm     80 % 0.00 in
20:32 50.3 °F 44.7 °F 30.09 in Calm   1.2 mph 81 % 0.00 in
20:37 50.2 °F 44.6 °F 30.10 in Calm     81 % 0.00 in
20:42 50.1 °F 44.5 °F 30.09 in Calm     81 % 0.00 in
20:47 50.1 °F 44.8 °F 30.09 in Calm     82 % 0.00 in
20:52 50.0 °F 44.7 °F 30.09 in Calm     82 % 0.00 in
20:57 50.0 °F 44.7 °F 30.09 in Calm     82 % 0.00 in
21:03 49.9 °F 44.6 °F 30.09 in Calm     82 % 0.00 in
21:08 49.9 °F 44.6 °F 30.09 in Calm     82 % 0.00 in
21:09 49.9 °F 44.6 °F 30.09 in Calm     82 % 0.00 in
21:14 49.8 °F 44.5 °F 30.09 in Calm     82 % 0.00 in
21:19 49.8 °F 44.5 °F 30.09 in Calm     82 % 0.00 in
21:24 49.8 °F 44.8 °F 30.09 in Calm     83 % 0.00 in
21:29 49.7 °F 44.7 °F 30.09 in Calm     83 % 0.00 in
21:34 49.7 °F 45.1 °F 30.08 in Calm     84 % 0.00 in
21:39 49.7 °F 45.4 °F 30.08 in Calm     85 % 0.00 in
21:44 49.7 °F 45.7 °F 30.08 in Calm     86 % 0.00 in
21:49 49.7 °F 45.7 °F 30.09 in Calm     86 % 0.00 in
21:50 49.8 °F 45.8 °F 30.09 in Calm     86 % 0.00 in
21:56 49.8 °F 45.8 °F 30.08 in Calm   1.2 mph 86 % 0.00 in
22:01 49.8 °F 45.8 °F 30.09 in Calm     86 % 0.00 in
22:06 49.8 °F 45.8 °F 30.08 in Calm     86 % 0.00 in
22:11 49.9 °F 46.2 °F 30.08 in Calm     87 % 0.00 in
22:16 49.9 °F 45.9 °F 30.08 in Calm     86 % 0.00 in
22:21 49.9 °F 45.9 °F 30.08 in Calm     86 % 0.00 in
22:26 49.8 °F 45.8 °F 30.08 in Calm     86 % 0.00 in
22:31 49.7 °F 45.7 °F 30.08 in Calm     86 % 0.00 in
22:36 49.7 °F 45.7 °F 30.09 in Calm     86 % 0.00 in
22:41 49.6 °F 45.6 °F 30.09 in Calm     86 % 0.00 in
22:46 49.5 °F 45.5 °F 30.08 in Calm     86 % 0.00 in
22:51 49.5 °F 45.5 °F 30.08 in Calm     86 % 0.00 in
22:56 49.4 °F 45.4 °F 30.08 in Calm     86 % 0.00 in
23:01 49.3 °F 45.6 °F 30.08 in Calm     87 % 0.00 in
23:06 49.2 °F 45.5 °F 30.08 in Calm     87 % 0.00 in
23:12 49.1 °F 45.4 °F 30.08 in Calm     87 % 0.00 in
23:17 49.1 °F 45.4 °F 30.08 in Calm     87 % 0.00 in
23:22 49.0 °F 45.3 °F 30.07 in Calm     87 % 0.00 in
23:26 48.9 °F 45.2 °F 30.08 in Calm     87 % 0.00 in
23:33 48.8 °F 45.1 °F 30.08 in Calm     87 % 0.00 in
23:38 48.7 °F 45.0 °F 30.07 in Calm     87 % 0.00 in
23:43 48.6 °F 44.9 °F 30.07 in Calm     87 % 0.00 in
23:48 48.6 °F 44.9 °F 30.07 in Calm     87 % 0.00 in
23:53 48.5 °F 44.8 °F 30.07 in Calm     87 % 0.00 in
23:58 48.3 °F 44.6 °F 30.08 in Calm     87 % 0.00 in
Crab Meadow Weather
Compliments of Weather Underground - 3 mb

Script developed by  Jim McMurry - jmcmurry@mwt.net Adapted for the template by  Wim van der Kuil - Leuven-Template.eu

Extremes: A record low of - 128.6 degrees F was recorded at Vostok, Antarctica.